Time;durP1;ratioP1;P1;durP2;ratioP2;P2;SDS_P1;SDS_P2;PMS_P1;PMS_P2;Temp;Humidity;BMP_temperature;BMP_pressure;BME280_temperature;BME280_humidity;BME280_pressure;Samples;Min_cycle;Max_cycle;Signal;HPM_P1;HPM_P2
2022/06/09 00:01:06;;;;;;;;;;;;;;;27.83;38.82;100079.00;5053367;28;941;-35
2022/06/09 00:03:42;;;;;;;;;;;;;;;27.93;38.91;100080.47;5054083;28;1014;-35
2022/06/09 00:06:09;;;;;;;;;;;;;;;27.94;38.45;100076.75;5054084;28;903;-35
2022/06/09 00:08:34;;;;;;;;;;;;;;;27.97;39.12;100079.88;5038222;28;1192;-35
2022/06/09 00:11:00;;;;;;;;;;;;;;;28.11;38.83;100078.00;5055132;28;1031;-35
2022/06/09 00:13:26;;;;;;;;;;;;;;;27.96;38.22;100069.28;5050016;28;1955;-35
2022/06/09 00:15:51;;;;;;;;;;;;;;;27.98;39.02;100070.72;5051607;28;970;-35
2022/06/09 00:18:16;;;;;;;;;;;;;;;27.97;38.10;100062.81;5054740;28;855;-35
2022/06/09 00:20:42;;;;;;;;;;;;;;;27.96;38.46;100061.16;5055869;28;1128;-35
2022/06/09 00:23:07;;;;;;;;;;;;;;;27.83;38.31;100068.19;5049752;28;1060;-35
2022/06/09 00:25:35;;;;;;;;;;;;;;;27.87;38.50;100058.66;5056517;28;1123;-35
2022/06/09 00:28:00;;;;;;;;;;;;;;;27.90;38.78;100054.69;5049482;28;1013;-35
2022/06/09 00:30:25;;;;;;;;;;;;;;;27.93;39.10;100058.84;5050324;28;923;-35
2022/06/09 00:32:51;;;;;;;;;;;;;;;28.15;38.82;100064.91;5052762;28;1898;-35
2022/06/09 00:35:16;;;;;;;;;;;;;;;28.02;38.17;100060.34;5050943;28;1107;-35
2022/06/09 00:37:41;;;;;;;;;;;;;;;27.96;39.11;100059.28;5054690;28;1017;-35
2022/06/09 00:40:07;;;;;;;;;;;;;;;27.98;37.83;100056.34;5054003;28;1183;-35
2022/06/09 00:42:33;;;;;;;;;;;;;;;27.99;38.61;100060.75;5037038;28;1136;-34
2022/06/09 00:45:17;;;;;;;;;;;;;;;27.98;38.92;100059.91;5056000;28;1014;-35
2022/06/09 00:47:43;;;;;;;;;;;;;;;27.88;38.62;100067.56;5050048;28;1279;-35
2022/06/09 00:50:15;;;;;;;;;;;;;;;27.91;39.04;100067.16;5048515;28;1001;-35
2022/06/09 00:52:41;;;;;;;;;;;;;;;27.82;38.56;100068.41;5051125;28;1910;-35
2022/06/09 00:55:09;;;;;;;;;;;;;;;27.90;38.49;100079.03;5055259;28;973;-35
2022/06/09 00:57:35;;;;;;;;;;;;;;;27.86;39.08;100073.19;5053446;28;1065;-35
2022/06/09 01:00:03;;;;;;;;;;;;;;;27.92;38.67;100068.84;5055488;28;1072;-35
2022/06/09 01:02:28;;;;;;;;;;;;;;;27.81;39.06;100070.25;5053060;28;1057;-35
2022/06/09 01:04:54;;;;;;;;;;;;;;;27.90;38.60;100070.91;5056315;28;1093;-35
2022/06/09 01:07:26;;;;;;;;;;;;;;;27.80;38.91;100075.88;5038099;28;1187;-35
2022/06/09 01:09:52;;;;;;;;;;;;;;;27.88;38.82;100072.97;5037779;28;903;-35
2022/06/09 01:12:20;;;;;;;;;;;;;;;27.83;38.87;100072.75;5047454;28;1963;-35
2022/06/09 01:14:45;;;;;;;;;;;;;;;27.77;38.92;100069.03;5052917;28;990;-35
2022/06/09 01:17:12;;;;;;;;;;;;;;;27.93;38.36;100067.78;5033800;28;1116;-35
2022/06/09 01:19:38;;;;;;;;;;;;;;;27.79;38.85;100069.66;5032256;28;985;-35
2022/06/09 01:22:09;;;;;;;;;;;;;;;27.82;38.96;100068.41;5055740;28;929;-35
2022/06/09 01:24:52;;;;;;;;;;;;;;;27.80;39.08;100060.50;5048888;28;954;-35
2022/06/09 01:27:47;;;;;;;;;;;;;;;27.78;39.09;100059.06;5054920;28;1138;-35
2022/06/09 01:30:14;;;;;;;;;;;;;;;27.82;39.17;100054.88;4996008;28;1375;-34
2022/06/09 01:32:42;;;;;;;;;;;;;;;27.72;39.16;100066.94;5037201;28;1906;-35
2022/06/09 01:35:21;;;;;;;;;;;;;;;27.77;38.92;100065.47;5040639;28;1159;-35
2022/06/09 01:37:47;;;;;;;;;;;;;;;27.75;38.99;100069.22;5058559;28;1025;-35
2022/06/09 01:40:13;;;;;;;;;;;;;;;27.83;39.19;100075.47;5041177;28;1199;-35
2022/06/09 01:42:39;;;;;;;;;;;;;;;27.78;39.08;100067.16;5059729;28;1002;-35
2022/06/09 01:45:16;;;;;;;;;;;;;;;27.71;38.87;100072.53;5051064;28;1032;-35
2022/06/09 01:47:41;;;;;;;;;;;;;;;27.73;39.25;100071.28;5058169;28;1262;-35
2022/06/09 01:50:07;;;;;;;;;;;;;;;27.77;38.93;100063.63;5057296;28;989;-35
2022/06/09 01:52:33;;;;;;;;;;;;;;;27.84;38.83;100069.84;5057346;28;1977;-35
2022/06/09 01:54:58;;;;;;;;;;;;;;;27.86;39.06;100069.66;5038523;28;1034;-35
2022/06/09 01:57:27;;;;;;;;;;;;;;;27.78;39.21;100076.06;5056059;28;1073;-35
2022/06/09 01:59:54;;;;;;;;;;;;;;;27.68;39.38;100073.75;5041244;28;997;-35
2022/06/09 02:02:27;;;;;;;;;;;;;;;27.73;39.29;100074.00;5040348;28;1395;-35
2022/06/09 02:04:56;;;;;;;;;;;;;;;27.76;39.16;100070.03;5034443;28;1053;-35
2022/06/09 02:07:22;;;;;;;;;;;;;;;27.77;39.37;100066.31;5031298;28;1029;-35
2022/06/09 02:09:47;;;;;;;;;;;;;;;27.80;39.28;100071.31;5052468;28;958;-35
2022/06/09 02:12:13;;;;;;;;;;;;;;;27.69;39.37;100067.34;5053901;28;1957;-35
2022/06/09 02:14:39;;;;;;;;;;;;;;;27.83;39.29;100065.50;5040033;28;1278;-35
2022/06/09 02:17:05;;;;;;;;;;;;;;;27.68;39.57;100068.38;5037864;28;1053;-35
2022/06/09 02:19:30;;;;;;;;;;;;;;;27.69;39.48;100070.03;5051274;28;1045;-35
2022/06/09 02:21:56;;;;;;;;;;;;;;;27.70;39.77;100066.28;5055082;28;1060;-35
2022/06/09 02:24:21;;;;;;;;;;;;;;;27.79;39.07;100066.09;5058426;28;997;-35
2022/06/09 02:26:46;;;;;;;;;;;;;;;27.69;39.60;100061.09;5055814;28;1060;-35
2022/06/09 02:29:12;;;;;;;;;;;;;;;27.78;39.32;100062.56;5056557;28;993;-35
2022/06/09 02:31:37;;;;;;;;;;;;;;;27.72;39.22;100068.78;5055230;28;1167;-35
2022/06/09 02:34:02;;;;;;;;;;;;;;;27.72;39.15;100056.13;5057748;28;1971;-35
2022/06/09 02:36:28;;;;;;;;;;;;;;;27.79;38.65;100056.16;5056600;28;1167;-34
2022/06/09 02:38:53;;;;;;;;;;;;;;;27.74;38.86;100051.31;5049477;28;910;-35
2022/06/09 02:41:18;;;;;;;;;;;;;;;27.81;39.21;100064.03;5058719;28;1049;-35
2022/06/09 02:43:43;;;;;;;;;;;;;;;27.66;39.13;100067.69;5029874;28;1147;-35
2022/06/09 02:46:09;;;;;;;;;;;;;;;27.69;38.71;100070.03;5057848;28;1002;-35
2022/06/09 02:48:34;;;;;;;;;;;;;;;27.72;38.74;100069.63;5051707;28;1199;-35
2022/06/09 02:51:15;;;;;;;;;;;;;;;27.76;38.91;100070.03;5055404;28;1469;-35
2022/06/09 02:53:40;;;;;;;;;;;;;;;27.81;38.89;100069.44;5053595;28;1967;-35
2022/06/09 02:56:06;;;;;;;;;;;;;;;27.74;39.47;100055.91;5056932;28;1140;-35
2022/06/09 02:58:31;;;;;;;;;;;;;;;27.78;38.67;100054.47;5057458;28;1147;-35
2022/06/09 03:00:56;;;;;;;;;;;;;;;27.73;39.13;100055.06;5051313;28;1027;-35
2022/06/09 03:03:21;;;;;;;;;;;;;;;27.71;39.13;100061.72;5053665;28;1052;-35
2022/06/09 03:05:47;;;;;;;;;;;;;;;27.72;39.04;100061.53;5052276;28;1143;-35
2022/06/09 03:08:12;;;;;;;;;;;;;;;27.68;39.08;100062.09;5053870;28;1068;-35
2022/06/09 03:10:38;;;;;;;;;;;;;;;27.80;38.92;100056.94;5050887;28;1037;-35
2022/06/09 03:13:03;;;;;;;;;;;;;;;27.71;38.74;100056.34;5054276;28;1898;-35
2022/06/09 03:15:29;;;;;;;;;;;;;;;27.70;38.70;100060.06;5056852;28;966;-35
2022/06/09 03:17:54;;;;;;;;;;;;;;;27.66;37.88;100053.38;5055002;28;1029;-37
2022/06/09 03:20:20;;;;;;;;;;;;;;;26.73;37.84;100051.66;5052922;28;1021;-37
2022/06/09 03:22:46;;;;;;;;;;;;;;;26.57;38.73;100050.13;5054291;28;993;-38
2022/06/09 03:25:11;;;;;;;;;;;;;;;26.49;38.61;100050.25;5057524;28;1009;-38
2022/06/09 03:27:36;;;;;;;;;;;;;;;26.36;38.78;100048.28;5056857;28;1172;-38
2022/06/09 03:30:02;;;;;;;;;;;;;;;26.33;38.66;100048.66;5057012;28;858;-38
2022/06/09 03:32:27;;;;;;;;;;;;;;;26.40;38.59;100039.63;5051094;28;1977;-38
2022/06/09 03:34:53;;;;;;;;;;;;;;;26.21;39.31;100035.69;5050766;28;998;-38
2022/06/09 03:37:18;;;;;;;;;;;;;;;26.03;39.83;100034.28;5053420;28;1073;-38
2022/06/09 03:39:44;;;;;;;;;;;;;;;25.90;40.04;100037.69;5051483;28;1227;-38
2022/06/09 03:42:09;;;;;;;;;;;;;;;25.68;40.52;100040.38;5054804;28;922;-38
2022/06/09 03:44:34;;;;;;;;;;;;;;;25.52;39.79;100040.56;5056820;28;1235;-38
2022/06/09 03:47:00;;;;;;;;;;;;;;;25.57;40.62;100032.78;5038175;28;1029;-37
2022/06/09 03:49:25;;;;;;;;;;;;;;;25.56;40.69;100037.31;5055587;28;1280;-37
2022/06/09 03:51:50;;;;;;;;;;;;;;;25.60;40.90;100034.22;5046207;28;1028;-36
2022/06/09 03:54:16;;;;;;;;;;;;;;;25.52;41.08;100037.88;5052537;28;1983;-36
2022/06/09 03:56:42;;;;;;;;;;;;;;;25.47;41.87;100034.91;5050198;28;1218;-36
2022/06/09 03:59:08;;;;;;;;;;;;;;;25.06;42.44;100029.03;5052862;28;1123;-36
2022/06/09 04:01:33;;;;;;;;;;;;;;;25.01;42.60;100028.75;5054438;28;1140;-36
2022/06/09 04:03:59;;;;;;;;;;;;;;;24.99;42.88;100031.63;5055352;28;1056;-36
2022/06/09 04:06:24;;;;;;;;;;;;;;;24.79;43.81;100032.16;5053360;28;1096;-36
2022/06/09 04:08:50;;;;;;;;;;;;;;;24.89;43.91;100023.00;5049769;28;1588;-37
2022/06/09 04:11:16;;;;;;;;;;;;;;;24.83;43.92;100030.78;5056366;28;1072;-37
2022/06/09 04:13:41;;;;;;;;;;;;;;;24.20;45.65;100026.53;5051522;28;1910;-37
2022/06/09 04:16:11;;;;;;;;;;;;;;;23.50;48.11;100023.78;5050286;28;945;-37
2022/06/09 04:18:36;;;;;;;;;;;;;;;22.91;50.05;100025.81;5056773;28;989;-37
2022/06/09 04:21:02;;;;;;;;;;;;;;;22.71;50.86;100038.78;5053151;28;934;-37
2022/06/09 04:23:27;;;;;;;;;;;;;;;22.14;53.34;100043.97;5054814;28;1008;-37
2022/06/09 04:25:53;;;;;;;;;;;;;;;21.67;55.00;100048.06;5055825;28;1032;-37
2022/06/09 04:28:18;;;;;;;;;;;;;;;22.07;54.11;100043.78;5055713;28;1202;-37
2022/06/09 04:30:44;;;;;;;;;;;;;;;22.41;53.13;100039.28;5049843;28;902;-37
2022/06/09 04:33:10;;;;;;;;;;;;;;;22.40;52.54;100042.97;5051107;28;1898;-37
2022/06/09 04:35:35;;;;;;;;;;;;;;;23.07;50.60;100046.38;5053444;28;1017;-37
2022/06/09 04:38:00;;;;;;;;;;;;;;;23.15;51.66;100050.91;5055888;28;993;-37
2022/06/09 04:40:26;;;;;;;;;;;;;;;22.76;53.02;100044.47;5049800;28;1057;-37
2022/06/09 04:42:51;;;;;;;;;;;;;;;23.06;52.29;100047.41;5056249;28;1088;-37
2022/06/09 04:45:17;;;;;;;;;;;;;;;23.35;51.62;100050.50;5055262;28;1186;-37
2022/06/09 04:47:42;;;;;;;;;;;;;;;22.61;53.55;100050.53;5054555;28;1241;-38
2022/06/09 04:50:09;;;;;;;;;;;;;;;23.19;51.07;100056.78;5054717;28;1064;-38
2022/06/09 04:52:34;;;;;;;;;;;;;;;24.32;47.26;100063.72;5055327;28;1910;-40
2022/06/09 04:54:59;;;;;;;;;;;;;;;24.52;46.12;100060.50;5049904;28;954;-38
2022/06/09 04:57:25;;;;;;;;;;;;;;;24.88;45.93;100062.50;5054554;28;1200;-39
2022/06/09 04:59:50;;;;;;;;;;;;;;;24.96;46.13;100069.66;5053464;28;1387;-40
2022/06/09 05:02:15;;;;;;;;;;;;;;;25.03;45.81;100067.06;5055280;28;1066;-40
2022/06/09 05:04:40;;;;;;;;;;;;;;;24.92;45.53;100079.97;5055633;28;1215;-40
2022/06/09 05:07:06;;;;;;;;;;;;;;;25.06;46.50;100075.63;5049691;28;914;-39
2022/06/09 05:09:31;;;;;;;;;;;;;;;24.76;47.07;100075.56;5050876;28;1059;-40
2022/06/09 05:11:56;;;;;;;;;;;;;;;25.03;47.00;100077.84;5055561;28;917;-37
2022/06/09 05:14:22;;;;;;;;;;;;;;;25.33;46.25;100079.69;5051197;28;1898;-39
2022/06/09 05:16:47;;;;;;;;;;;;;;;25.59;45.25;100081.06;5052614;28;947;-38
2022/06/09 05:19:12;;;;;;;;;;;;;;;25.72;45.24;100077.69;5054109;28;1049;-39
2022/06/09 05:21:37;;;;;;;;;;;;;;;25.77;45.08;100077.97;5053736;28;1200;-38
2022/06/09 05:24:03;;;;;;;;;;;;;;;25.80;45.00;100077.59;5055237;28;1017;-37
2022/06/09 05:26:28;;;;;;;;;;;;;;;25.77;44.98;100075.28;5051903;28;1208;-38
2022/06/09 05:28:55;;;;;;;;;;;;;;;25.87;44.20;100077.66;5052353;28;1040;-38
2022/06/09 05:31:20;;;;;;;;;;;;;;;25.67;44.78;100078.28;5054082;28;1144;-38
2022/06/09 05:33:45;;;;;;;;;;;;;;;25.82;44.96;100082.78;5048555;28;1910;-37
2022/06/09 05:36:10;;;;;;;;;;;;;;;26.00;44.70;100072.41;5055141;28;1044;-39
2022/06/09 05:46:47;;;;;;;;;;;;;;;26.17;44.31;100062.19;5050401;28;1265;-38
2022/06/09 05:49:13;;;;;;;;;;;;;;;26.09;44.30;100065.00;5054564;28;1252;-38
2022/06/09 05:51:38;;;;;;;;;;;;;;;26.16;44.35;100068.63;5055079;28;994;-38
2022/06/09 05:54:03;;;;;;;;;;;;;;;26.14;44.15;100062.56;5055084;28;1965;-38
2022/06/09 05:56:29;;;;;;;;;;;;;;;26.27;44.58;100077.22;5055431;28;1199;-37
2022/06/09 05:58:55;;;;;;;;;;;;;;;26.26;44.33;100067.44;5055238;28;1064;-37
2022/06/09 06:01:20;;;;;;;;;;;;;;;26.21;44.66;100068.03;5054904;28;1140;-37
2022/06/09 06:03:45;;;;;;;;;;;;;;;26.29;43.98;100067.91;5055596;28;978;-40
2022/06/09 06:08:54;;;;;;;;;;;;;;;26.41;44.19;100062.84;5054938;28;950;-39
2022/06/09 06:11:20;;;;;;;;;;;;;;;26.24;44.14;100062.25;5054864;28;1263;-39
2022/06/09 06:13:45;;;;;;;;;;;;;;;26.42;43.94;100052.91;5054767;28;1973;-39
2022/06/09 06:16:11;;;;;;;;;;;;;;;26.64;43.88;100060.94;5053147;28;1121;-38
2022/06/09 06:18:36;;;;;;;;;;;;;;;26.64;43.57;100059.06;5055400;28;1226;-39
2022/06/09 06:21:01;;;;;;;;;;;;;;;26.70;43.57;100065.56;5058295;28;1025;-36
2022/06/09 06:23:27;;;;;;;;;;;;;;;26.60;43.85;100063.19;5058599;28;1262;-34
2022/06/09 06:25:52;;;;;;;;;;;;;;;26.62;43.23;100063.00;5051943;28;994;-34
2022/06/09 06:28:18;;;;;;;;;;;;;;;26.53;43.27;100057.75;5058206;28;1073;-36
2022/06/09 06:30:43;;;;;;;;;;;;;;;26.46;43.81;100050.66;5058904;28;1009;-34
2022/06/09 06:33:08;;;;;;;;;;;;;;;26.85;42.53;100056.50;5056827;28;1961;-34
2022/06/09 06:35:33;;;;;;;;;;;;;;;26.85;42.11;100053.81;5058268;28;974;-35
2022/06/09 06:38:00;;;;;;;;;;;;;;;26.44;44.84;100050.84;5057851;28;1063;-36
2022/06/09 06:40:25;;;;;;;;;;;;;;;26.14;45.66;100053.69;5057881;28;1552;-36
2022/06/09 06:42:50;;;;;;;;;;;;;;;25.48;48.38;100047.34;5057881;28;1049;-38
2022/06/09 06:45:16;;;;;;;;;;;;;;;26.43;44.61;100034.84;5050991;28;1308;-36
2022/06/09 06:47:41;;;;;;;;;;;;;;;26.44;44.08;100050.84;5058720;28;1025;-38
2022/06/09 06:50:07;;;;;;;;;;;;;;;25.97;45.25;100056.63;5058037;28;1065;-37
2022/06/09 06:52:32;;;;;;;;;;;;;;;26.42;43.28;100052.91;5055059;28;1906;-37
2022/06/09 06:54:57;;;;;;;;;;;;;;;26.59;41.72;100053.44;5058419;28;1017;-37
2022/06/09 06:57:23;;;;;;;;;;;;;;;26.92;41.27;100056.56;5058010;28;1222;-36
2022/06/09 06:59:48;;;;;;;;;;;;;;;26.97;40.88;100062.19;5054353;28;1407;-36
2022/06/09 07:02:14;;;;;;;;;;;;;;;26.85;40.90;100064.59;5057386;28;1259;-37
2022/06/09 07:04:39;;;;;;;;;;;;;;;26.34;42.52;100061.13;5057321;28;1235;-38
2022/06/09 07:07:04;;;;;;;;;;;;;;;26.88;40.59;100053.41;5057096;28;1309;-34
2022/06/09 07:09:29;;;;;;;;;;;;;;;27.13;39.78;100061.06;5057526;28;1211;-35
2022/06/09 07:11:55;;;;;;;;;;;;;;;27.08;39.58;100063.50;5056859;28;1286;-38
2022/06/09 07:14:20;;;;;;;;;;;;;;;26.83;40.79;100056.72;5054397;28;1902;-36
2022/06/09 07:16:45;;;;;;;;;;;;;;;26.64;39.31;99980.03;5056502;28;1416;-35
2022/06/09 07:19:11;;;;;;;;;;;;;;;27.29;38.76;100057.19;5057122;28;1132;-36
2022/06/09 07:21:36;;;;;;;;;;;;;;;26.67;39.62;100055.16;5057279;28;1009;-36
2022/06/09 07:24:02;;;;;;;;;;;;;;;27.05;39.43;100056.66;5057870;28;1053;-35
2022/06/09 07:26:28;;;;;;;;;;;;;;;27.04;39.40;100062.25;5057417;28;1084;-36
2022/06/09 07:28:54;;;;;;;;;;;;;;;27.17;37.82;100050.69;5056623;28;1172;-37
2022/06/09 07:31:19;;;;;;;;;;;;;;;27.43;37.43;100058.06;5038756;28;1228;-37
2022/06/09 07:33:44;;;;;;;;;;;;;;;27.30;37.46;100060.72;5056560;28;1905;-37
2022/06/09 07:36:10;;;;;;;;;;;;;;;27.22;37.48;100056.31;5056621;28;930;-37
2022/06/09 07:38:36;;;;;;;;;;;;;;;27.30;37.91;100064.25;5057258;28;1069;-37
2022/06/09 07:41:01;;;;;;;;;;;;;;;27.36;37.28;100059.94;5057233;28;977;-36
2022/06/09 07:43:26;;;;;;;;;;;;;;;27.46;38.14;100060.34;5054122;28;1327;-36
2022/06/09 07:45:52;;;;;;;;;;;;;;;27.44;38.71;100053.50;5054258;28;1006;-37
2022/06/09 07:48:19;;;;;;;;;;;;;;;27.51;38.61;100038.97;5056693;28;1127;-37
2022/06/09 07:50:44;;;;;;;;;;;;;;;27.40;38.16;100042.28;5056647;28;915;-36
2022/06/09 07:53:10;;;;;;;;;;;;;;;27.46;39.34;100041.44;5057062;28;1909;-37
2022/06/09 07:55:35;;;;;;;;;;;;;;;27.48;39.34;100039.38;5057046;28;845;-36
2022/06/09 07:58:00;;;;;;;;;;;;;;;27.47;38.77;100053.94;5056818;28;1121;-37
2022/06/09 08:00:26;;;;;;;;;;;;;;;27.69;38.49;100047.59;5057088;28;899;-34
2022/06/09 08:02:51;;;;;;;;;;;;;;;27.67;38.09;100046.91;5056741;28;962;-35
2022/06/09 08:05:17;;;;;;;;;;;;;;;27.58;39.06;100046.25;5056140;28;1111;-37
2022/06/09 08:07:43;;;;;;;;;;;;;;;27.60;40.14;100047.75;5056824;28;1056;-38
2022/06/09 08:10:09;;;;;;;;;;;;;;;27.79;40.93;100044.50;5032780;28;1089;-37
2022/06/09 08:12:34;;;;;;;;;;;;;;;24.67;47.04;100044.41;5056949;28;1951;-37
2022/06/09 08:14:59;;;;;;;;;;;;;;;24.49;48.46;100039.38;5056028;28;1070;-37
2022/06/09 08:17:25;;;;;;;;;;;;;;;24.17;50.34;100055.59;5056655;28;1155;-38
2022/06/09 08:19:51;;;;;;;;;;;;;;;24.05;49.49;100045.25;5056878;28;1009;-39
2022/06/09 08:22:16;;;;;;;;;;;;;;;24.16;49.22;100051.19;5056270;28;1097;-37
2022/06/09 08:24:42;;;;;;;;;;;;;;;25.15;46.92;100049.47;5053529;28;981;-38
2022/06/09 08:27:07;;;;;;;;;;;;;;;24.89;48.42;100050.72;5055319;28;1005;-38
2022/06/09 08:29:32;;;;;;;;;;;;;;;25.03;48.47;100051.78;5051172;28;1153;-38
2022/06/09 08:31:58;;;;;;;;;;;;;;;25.61;45.00;100049.38;5053197;28;1009;-38
2022/06/09 08:34:23;;;;;;;;;;;;;;;24.30;49.96;100055.81;5055934;28;1901;-38
2022/06/09 08:36:49;;;;;;;;;;;;;;;24.05;49.84;100050.63;5053124;28;1558;-37
2022/06/09 08:39:14;;;;;;;;;;;;;;;24.70;48.36;100049.41;5055331;28;1143;-37
2022/06/09 08:41:59;;;;;;;;;;;;;;;24.55;48.09;100055.59;5055161;28;1032;-37
2022/06/09 08:44:31;;;;;;;;;;;;;;;25.35;45.76;100051.56;5014419;28;1249;-37
2022/06/09 08:46:59;;;;;;;;;;;;;;;25.75;44.83;100055.78;5031442;28;1137;-36
2022/06/09 08:49:30;;;;;;;;;;;;;;;25.57;43.41;100051.63;5037620;28;1010;-37
2022/06/09 08:51:58;;;;;;;;;;;;;;;25.07;47.90;100046.88;5033016;28;1196;-37
2022/06/09 08:54:26;;;;;;;;;;;;;;;26.81;42.23;100055.25;5055792;28;1959;-37
2022/06/09 08:56:51;;;;;;;;;;;;;;;27.14;38.79;100052.75;5032093;28;978;-37
2022/06/09 08:59:17;;;;;;;;;;;;;;;27.28;39.14;100049.31;5037500;28;1121;-36
2022/06/09 09:01:44;;;;;;;;;;;;;;;26.81;40.41;100045.28;5051532;28;997;-37
2022/06/09 09:04:22;;;;;;;;;;;;;;;27.22;40.35;100049.06;5027353;28;1125;-37
2022/06/09 09:06:54;;;;;;;;;;;;;;;27.67;39.26;100039.66;5049721;28;1025;-38
2022/06/09 09:09:22;;;;;;;;;;;;;;;27.88;38.61;100035.13;5051134;28;1250;-37
2022/06/09 09:11:47;;;;;;;;;;;;;;;26.55;43.35;100032.44;5054507;28;1076;-37
2022/06/09 09:14:13;;;;;;;;;;;;;;;25.65;45.77;100027.28;5054510;28;1894;-37
2022/06/09 09:16:44;;;;;;;;;;;;;;;25.20;48.77;100024.66;5055680;28;1029;-37
2022/06/09 09:19:28;;;;;;;;;;;;;;;25.16;47.73;100026.91;5054754;28;978;-37
2022/06/09 09:22:04;;;;;;;;;;;;;;;25.04;46.79;100029.22;5053674;28;1045;-37
2022/06/09 09:24:30;;;;;;;;;;;;;;;25.07;45.58;100026.16;5033372;28;1002;-37
2022/06/09 09:26:58;;;;;;;;;;;;;;;26.03;43.44;100031.59;5052143;28;989;-37
2022/06/09 09:29:47;;;;;;;;;;;;;;;25.58;44.41;100022.81;5053718;28;1001;-37
2022/06/09 09:32:18;;;;;;;;;;;;;;;26.29;42.42;100026.63;5042136;28;1187;-37
2022/06/09 09:34:44;;;;;;;;;;;;;;;25.19;45.42;100014.94;5036498;28;1136;-36
2022/06/09 09:37:16;;;;;;;;;;;;;;;25.29;43.13;100018.16;5050735;28;987;-36
2022/06/09 09:39:47;;;;;;;;;;;;;;;26.73;39.56;100021.16;5049753;28;1068;-35
2022/06/09 09:42:20;;;;;;;;;;;;;;;27.24;37.42;100032.66;5047008;28;1040;-35
2022/06/09 09:45:02;;;;;;;;;;;;;;;27.60;35.91;100004.53;5051640;28;982;-36
2022/06/09 09:47:28;;;;;;;;;;;;;;;27.66;36.24;100020.94;5051809;28;1220;-36
2022/06/09 09:49:53;;;;;;;;;;;;;;;27.63;35.47;100019.47;5052932;28;1076;-36
2022/06/09 09:52:37;;;;;;;;;;;;;;;27.73;36.38;100019.94;5036578;28;1041;-36
2022/06/09 09:55:04;;;;;;;;;;;;;;;28.03;35.07;100017.91;5057604;28;1235;-36
2022/06/09 09:57:29;;;;;;;;;;;;;;;28.06;35.56;100012.09;5041480;28;1018;-36
2022/06/09 09:59:55;;;;;;;;;;;;;;;27.66;38.07;100013.66;5052142;28;1049;-36
2022/06/09 10:08:36;;;;;;;;;;;;;;;28.09;34.98;100008.97;5040296;28;961;-35
2022/06/09 10:11:53;;;;;;;;;;;;;;;28.17;36.19;100007.91;5057414;28;1196;-36
2022/06/09 10:13:47;;;;;;;;;;;;;;;28.23;36.99;100007.91;5058577;28;1898;-35
2022/06/09 10:16:12;;;;;;;;;;;;;;;28.31;36.76;100006.06;5058328;28;1010;-36
2022/06/09 10:18:42;;;;;;;;;;;;;;;28.43;36.01;100004.41;5040583;28;1037;-35
2022/06/09 10:21:08;;;;;;;;;;;;;;;28.11;37.86;99996.91;5040013;28;1164;-35
2022/06/09 10:23:45;;;;;;;;;;;;;;;27.62;40.76;99991.66;5057367;28;1333;-35
2022/06/09 10:26:18;;;;;;;;;;;;;;;27.75;41.17;99993.56;5058097;28;1235;-34
2022/06/09 10:28:48;;;;;;;;;;;;;;;27.87;41.08;99996.50;5040428;28;974;-33
2022/06/09 10:31:25;;;;;;;;;;;;;;;26.18;45.01;99984.84;5039245;28;1052;-39
2022/06/09 10:33:53;;;;;;;;;;;;;;;27.74;40.42;99991.06;5032977;28;1910;-42
2022/06/09 10:36:40;;;;;;;;;;;;;;;27.80;40.40;99995.63;5058283;28;835;-41
2022/06/09 10:39:11;;;;;;;;;;;;;;;28.06;39.97;99987.75;5039202;28;1077;-40
2022/06/09 10:41:42;;;;;;;;;;;;;;;28.51;38.97;99997.13;5037301;28;1245;-37
2022/06/09 10:44:14;;;;;;;;;;;;;;;28.73;38.33;99984.97;5038589;28;1078;-38
2022/06/09 10:46:45;;;;;;;;;;;;;;;28.22;30.17;99987.34;5039023;28;1581;-39
2022/06/09 10:55:18;;;;;;;;;;;;;;;28.32;29.51;99988.78;5057809;28;1921;-36
2022/06/09 10:57:50;;;;;;;;;;;;;;;28.28;28.97;99979.44;5040691;28;1125;-36
2022/06/09 11:00:17;;;;;;;;;;;;;;;28.24;29.88;99970.91;5039966;28;1310;-40
2022/06/09 11:02:44;;;;;;;;;;;;;;;28.24;32.00;99974.41;5039938;28;1051;-36
2022/06/09 11:05:10;;;;;;;;;;;;;;;28.15;33.25;99972.97;5040167;28;1037;-39
2022/06/09 11:07:35;;;;;;;;;;;;;;;28.14;33.15;99968.63;5038826;28;1062;-40
2022/06/09 11:10:10;;;;;;;;;;;;;;;28.16;34.38;99974.63;5056431;28;1303;-40
2022/06/09 11:12:47;;;;;;;;;;;;;;;28.16;35.19;99973.81;5055596;28;1898;-41
2022/06/09 11:15:25;;;;;;;;;;;;;;;28.05;34.09;99969.84;5055276;28;1212;-43
2022/06/09 11:18:05;;;;;;;;;;;;;;;28.05;34.77;99972.56;5053416;28;1268;-43
2022/06/09 11:20:43;;;;;;;;;;;;;;;28.12;34.75;99962.59;5057834;28;1049;-42
2022/06/09 11:23:21;;;;;;;;;;;;;;;27.94;34.74;99964.06;5058008;28;1128;-43
2022/06/09 11:25:58;;;;;;;;;;;;;;;27.94;35.80;99964.06;5056964;28;934;-42
2022/06/09 11:28:34;;;;;;;;;;;;;;;27.97;35.92;99962.81;5038678;28;1241;-43
2022/06/09 11:31:05;;;;;;;;;;;;;;;28.28;35.64;99958.59;5039257;28;854;-44
2022/06/09 11:33:36;;;;;;;;;;;;;;;28.25;36.35;99964.44;5051516;28;1906;-43
2022/06/09 11:36:13;;;;;;;;;;;;;;;28.23;37.01;99958.41;5039195;28;1117;-43
2022/06/09 11:38:42;;;;;;;;;;;;;;;28.41;36.92;99951.56;5057333;28;1076;-43
2022/06/09 11:41:10;;;;;;;;;;;;;;;28.47;37.17;99953.41;5056857;28;1017;-43
2022/06/09 11:43:51;;;;;;;;;;;;;;;28.58;37.99;99963.56;5038752;28;1247;-43
2022/06/09 11:46:17;;;;;;;;;;;;;;;27.91;40.28;99963.63;5057350;28;1005;-43
2022/06/09 11:48:44;;;;;;;;;;;;;;;26.23;45.39;99960.00;5039350;28;1057;-43
2022/06/09 11:51:09;;;;;;;;;;;;;;;25.79;46.28;99950.13;5039656;28;1084;-43
2022/06/09 11:53:39;;;;;;;;;;;;;;;26.75;44.62;99957.03;5056086;28;1910;-43
2022/06/09 11:56:33;;;;;;;;;;;;;;;26.44;44.30;99950.22;5056451;28;1140;-43
2022/06/09 11:58:59;;;;;;;;;;;;;;;27.40;42.30;99950.44;5054046;28;1113;-43
2022/06/09 12:01:28;;;;;;;;;;;;;;;27.83;40.73;99943.88;5056872;28;815;-43
2022/06/09 12:04:12;;;;;;;;;;;;;;;26.52;44.67;99953.63;5056320;28;1024;-43
2022/06/09 12:06:56;;;;;;;;;;;;;;;26.61;45.01;99948.06;5054360;28;1367;-43
2022/06/09 12:09:26;;;;;;;;;;;;;;;26.27;46.03;99947.81;5054367;28;1091;-43
2022/06/09 12:11:59;;;;;;;;;;;;;;;26.33;45.19;99947.03;5038283;28;1347;-43
2022/06/09 12:14:24;;;;;;;;;;;;;;;26.33;45.22;99940.81;5055922;28;1965;-43
2022/06/09 12:16:58;;;;;;;;;;;;;;;27.67;41.64;99950.50;5053132;28;998;-43
2022/06/09 12:19:25;;;;;;;;;;;;;;;27.61;41.48;99945.94;5053132;28;978;-43
2022/06/09 12:21:55;;;;;;;;;;;;;;;27.08;42.57;99942.03;5031799;28;1010;-44
2022/06/09 12:24:25;;;;;;;;;;;;;;;27.10;42.85;99940.81;5050716;28;1184;-43
2022/06/09 12:26:56;;;;;;;;;;;;;;;27.16;43.19;99941.03;5051075;28;1033;-43
2022/06/09 12:29:23;;;;;;;;;;;;;;;27.49;41.95;99940.28;5039765;28;990;-43
2022/06/09 12:32:10;;;;;;;;;;;;;;;27.43;42.22;99943.78;5031412;28;1410;-43
2022/06/09 12:34:38;;;;;;;;;;;;;;;27.29;42.60;99934.84;5056485;28;1972;-43
2022/06/09 12:37:03;;;;;;;;;;;;;;;27.93;40.93;99938.06;5038790;28;1105;-43
2022/06/09 12:39:28;;;;;;;;;;;;;;;28.00;41.48;99938.06;5056312;28;1013;-43
2022/06/09 12:41:58;;;;;;;;;;;;;;;27.47;43.20;99935.09;5056200;28;1144;-43
2022/06/09 12:44:23;;;;;;;;;;;;;;;28.52;39.89;99934.66;5055937;28;835;-43
2022/06/09 12:46:58;;;;;;;;;;;;;;;28.88;38.97;99934.34;5056132;28;1160;-43
2022/06/09 12:49:25;;;;;;;;;;;;;;;28.34;40.00;99935.34;5056423;28;966;-42
2022/06/09 12:51:50;;;;;;;;;;;;;;;28.29;39.48;99938.66;5055974;28;943;-43
2022/06/09 12:54:18;;;;;;;;;;;;;;;28.49;39.01;99948.63;5056395;28;1910;-43
2022/06/09 12:56:52;;;;;;;;;;;;;;;28.55;38.72;99946.94;5055892;28;982;-42
2022/06/09 12:59:20;;;;;;;;;;;;;;;28.72;37.97;99945.44;5054214;28;1067;-43
2022/06/09 13:01:52;;;;;;;;;;;;;;;28.64;38.12;99951.09;5055912;28;1227;-43
2022/06/09 13:04:18;;;;;;;;;;;;;;;28.63;38.24;99956.72;5056455;28;1075;-42
2022/06/09 13:06:47;;;;;;;;;;;;;;;28.82;38.14;99953.09;5055639;28;1227;-41
2022/06/09 13:09:19;;;;;;;;;;;;;;;28.94;37.73;99952.44;5053656;28;994;-42
2022/06/09 13:14:31;;;;;;;;;;;;;;;28.97;37.25;99949.31;5035507;28;1898;-41
2022/06/09 13:16:58;;;;;;;;;;;;;;;29.04;37.20;99958.25;5054741;28;937;-39
2022/06/09 13:19:24;;;;;;;;;;;;;;;29.13;37.40;99958.81;5037267;28;1203;-41